createdAt,value
2022-10-29T00:00:48.965Z,16.20
2022-10-29T00:03:47.629Z,15.80
2022-10-29T00:06:45.219Z,15.70
2022-10-29T00:09:42.795Z,15.40
2022-10-29T00:12:40.260Z,15.50
2022-10-29T00:15:38.244Z,17.50
2022-10-29T00:18:36.897Z,15.80
2022-10-29T00:21:34.650Z,19.80
2022-10-29T00:24:32.151Z,16.70
2022-10-29T00:27:29.690Z,14.20
2022-10-29T00:30:27.154Z,15.70
2022-10-29T00:33:24.666Z,17.90
2022-10-29T00:36:23.027Z,17.30
2022-10-29T00:39:20.525Z,16.20
2022-10-29T00:42:18.094Z,18.10
2022-10-29T00:45:15.611Z,15.70
2022-10-29T00:48:13.192Z,15.40
2022-10-29T00:51:10.694Z,17.70
2022-10-29T00:54:08.169Z,17.90
2022-10-29T00:57:05.711Z,18.00
2022-10-29T01:00:03.215Z,17.00
2022-10-29T01:03:00.777Z,17.30
2022-10-29T01:05:58.290Z,18.80
2022-10-29T01:08:55.746Z,16.40
2022-10-29T01:11:53.205Z,14.00
2022-10-29T01:14:50.651Z,16.90
2022-10-29T01:17:48.115Z,15.50
2022-10-29T01:20:45.570Z,14.90
2022-10-29T01:23:43.028Z,15.90
2022-10-29T01:26:40.480Z,17.90
2022-10-29T01:29:37.920Z,15.30
2022-10-29T01:32:35.358Z,15.40
2022-10-29T01:35:32.822Z,17.60
2022-10-29T01:38:30.285Z,16.60
2022-10-29T01:41:27.720Z,14.90
2022-10-29T01:44:25.155Z,16.40
2022-10-29T01:47:22.585Z,14.30
2022-10-29T01:50:20.036Z,15.20
2022-10-29T01:53:17.463Z,16.20
2022-10-29T01:56:14.931Z,15.60
2022-10-29T01:59:22.912Z,15.60
2022-10-29T02:02:29.817Z,13.50
2022-10-29T02:05:27.271Z,14.80
2022-10-29T02:08:24.735Z,13.70
2022-10-29T02:11:22.196Z,14.10
2022-10-29T02:14:19.635Z,13.40
2022-10-29T02:17:17.074Z,14.60
2022-10-29T02:20:14.538Z,14.60
2022-10-29T02:23:12.620Z,13.20
2022-10-29T02:26:10.105Z,13.90
2022-10-29T02:29:07.586Z,12.60
2022-10-29T02:32:05.056Z,12.90
2022-10-29T02:35:02.530Z,13.90
2022-10-29T02:37:59.967Z,14.00
2022-10-29T02:40:57.410Z,11.70
2022-10-29T02:43:54.874Z,13.40
2022-10-29T02:46:52.337Z,15.20
2022-10-29T02:49:49.791Z,16.10
2022-10-29T02:52:47.231Z,13.30
2022-10-29T02:55:44.670Z,12.70
2022-10-29T02:58:42.101Z,12.90
2022-10-29T03:01:39.599Z,11.90
2022-10-29T03:04:39.360Z,12.40
2022-10-29T03:07:36.875Z,12.20
2022-10-29T03:10:34.315Z,12.50
2022-10-29T03:13:31.801Z,12.00
2022-10-29T03:16:29.286Z,12.30
2022-10-29T03:19:26.740Z,13.20
2022-10-29T03:22:24.206Z,12.90
2022-10-29T03:25:21.654Z,12.80
2022-10-29T03:28:19.089Z,11.20
2022-10-29T03:31:16.575Z,12.40
2022-10-29T03:34:14.025Z,13.40
2022-10-29T03:37:11.485Z,11.40
2022-10-29T03:40:08.914Z,13.20
2022-10-29T03:43:06.372Z,15.00
2022-10-29T03:46:03.810Z,13.40
2022-10-29T03:49:01.280Z,12.30
2022-10-29T03:51:58.734Z,15.30
2022-10-29T03:54:56.187Z,12.90
2022-10-29T03:57:53.995Z,12.30
2022-10-29T04:00:51.691Z,12.00
2022-10-29T04:03:49.145Z,12.50
2022-10-29T04:06:46.602Z,11.50
2022-10-29T04:09:44.062Z,13.20
2022-10-29T04:12:41.496Z,11.60
2022-10-29T04:15:38.916Z,12.00
2022-10-29T04:18:36.395Z,12.80
2022-10-29T04:31:26.123Z,11.10
2022-10-29T04:34:23.562Z,11.80
2022-10-29T04:37:21.018Z,10.30
2022-10-29T04:40:18.468Z,10.80
2022-10-29T04:43:15.934Z,11.80
2022-10-29T04:46:13.385Z,11.60
2022-10-29T04:49:10.938Z,11.40
2022-10-29T04:52:08.787Z,12.60
2022-10-29T04:55:06.272Z,11.10
2022-10-29T04:58:03.749Z,16.80
2022-10-29T05:01:01.350Z,11.80
2022-10-29T05:04:00.103Z,11.50
2022-10-29T05:06:57.926Z,11.90
2022-10-29T05:09:55.421Z,12.80
2022-10-29T05:12:53.070Z,10.90
2022-10-29T05:15:53.328Z,11.20
2022-10-29T05:18:55.353Z,9.80
2022-10-29T05:21:52.792Z,11.50
2022-10-29T05:24:50.238Z,8.70
2022-10-29T05:27:47.703Z,10.90
2022-10-29T05:30:45.133Z,8.50
2022-10-29T05:33:42.608Z,10.40
2022-10-29T05:36:40.067Z,8.80
2022-10-29T05:39:37.533Z,8.90
2022-10-29T05:42:34.972Z,10.60
2022-10-29T05:45:32.443Z,9.40
2022-10-29T05:48:29.918Z,10.00
2022-10-29T05:51:27.373Z,8.70
2022-10-29T05:54:24.810Z,8.40
2022-10-29T05:57:22.277Z,8.60
2022-10-29T06:00:19.741Z,8.90
2022-10-29T06:03:17.245Z,9.20
2022-10-29T06:06:14.834Z,7.30
2022-10-29T06:09:12.316Z,7.60
2022-10-29T06:12:09.776Z,5.50
2022-10-29T06:15:07.267Z,6.60
2022-10-29T06:18:04.742Z,5.10
2022-10-29T06:21:02.199Z,4.90
2022-10-29T06:23:59.657Z,5.70
2022-10-29T06:26:57.097Z,6.00
2022-10-29T06:29:54.596Z,5.30
2022-10-29T06:32:52.056Z,7.00
2022-10-29T06:35:49.529Z,7.00
2022-10-29T06:38:46.968Z,6.00
2022-10-29T06:41:44.464Z,6.60
2022-10-29T06:44:41.912Z,6.90
2022-10-29T06:47:39.336Z,6.40
2022-10-29T06:50:36.781Z,8.20
2022-10-29T06:53:34.229Z,7.80
2022-10-29T06:56:31.722Z,6.90
2022-10-29T06:59:29.199Z,7.60
2022-10-29T07:02:26.672Z,8.10
2022-10-29T07:05:24.137Z,9.10
2022-10-29T07:08:21.602Z,8.40
2022-10-29T07:11:19.048Z,8.50
2022-10-29T07:14:16.507Z,10.00
2022-10-29T07:17:13.963Z,9.80
2022-10-29T07:20:11.421Z,10.20
2022-10-29T07:23:08.859Z,10.50
2022-10-29T07:26:06.323Z,9.70
2022-10-29T07:29:03.769Z,10.60
2022-10-29T07:32:01.227Z,7.80
2022-10-29T07:34:58.674Z,8.50
2022-10-29T07:37:56.324Z,10.10
2022-10-29T07:40:54.029Z,8.10
2022-10-29T07:43:51.724Z,9.30
2022-10-29T07:46:49.219Z,8.70
2022-10-29T07:49:48.816Z,9.00
2022-10-29T07:52:46.253Z,8.90
2022-10-29T07:55:43.714Z,7.30
2022-10-29T07:58:41.155Z,5.70
2022-10-29T08:01:38.657Z,6.20
2022-10-29T08:04:36.180Z,9.40
2022-10-29T08:07:33.636Z,5.90
2022-10-29T08:10:31.103Z,5.50
2022-10-29T08:13:28.538Z,6.10
2022-10-29T08:16:26.011Z,8.00
2022-10-29T08:19:23.481Z,5.80
2022-10-29T08:22:20.956Z,5.80
2022-10-29T08:25:18.427Z,5.10
2022-10-29T08:28:15.902Z,4.90
2022-10-29T08:31:13.377Z,4.70
2022-10-29T08:34:11.349Z,5.50
2022-10-29T08:37:09.045Z,5.10
2022-10-29T08:40:06.481Z,5.40
2022-10-29T08:43:03.937Z,5.30
2022-10-29T08:46:01.400Z,4.40
2022-10-29T08:48:58.835Z,4.20
2022-10-29T08:51:56.283Z,4.70
2022-10-29T08:54:53.764Z,4.20
2022-10-29T08:57:51.242Z,4.50
2022-10-29T09:00:48.735Z,4.20
2022-10-29T09:03:46.226Z,4.50
2022-10-29T09:06:43.670Z,4.90
2022-10-29T09:09:41.128Z,6.50
2022-10-29T09:12:38.588Z,5.00
2022-10-29T09:15:38.162Z,4.90
2022-10-29T09:18:35.659Z,6.30
2022-10-29T09:21:34.393Z,8.40
2022-10-29T09:24:32.417Z,7.10
2022-10-29T09:27:30.098Z,5.50
2022-10-29T09:30:28.104Z,6.30
2022-10-29T09:33:26.216Z,5.70
2022-10-29T09:36:24.216Z,7.80
2022-10-29T09:39:24.481Z,7.20
2022-10-29T09:42:22.226Z,9.40
2022-10-29T09:45:19.675Z,7.90
2022-10-29T09:48:17.120Z,7.90
2022-10-29T09:51:14.558Z,7.30
2022-10-29T09:54:12.578Z,7.40
2022-10-29T09:57:10.028Z,7.60
2022-10-29T10:00:07.521Z,7.30
2022-10-29T10:03:05.553Z,7.30
2022-10-29T10:06:03.355Z,11.10
2022-10-29T10:09:00.853Z,7.20
2022-10-29T10:11:59.688Z,7.80
2022-10-29T10:14:57.154Z,7.30
2022-10-29T10:17:54.952Z,9.20
2022-10-29T10:20:52.778Z,7.00
2022-10-29T10:23:51.908Z,9.70
2022-10-29T10:26:49.353Z,7.80
2022-10-29T10:29:46.797Z,7.90
2022-10-29T10:32:44.239Z,7.90
2022-10-29T10:35:41.723Z,8.00
2022-10-29T10:38:39.171Z,9.10
2022-10-29T10:41:36.702Z,9.20
2022-10-29T10:44:34.167Z,9.20
2022-10-29T10:47:31.614Z,7.50
2022-10-29T10:50:29.502Z,9.50
2022-10-29T10:53:26.940Z,8.70
2022-10-29T10:56:24.386Z,8.70
2022-10-29T10:59:21.840Z,8.00
2022-10-29T11:02:19.348Z,8.90
2022-10-29T11:05:16.840Z,8.00
2022-10-29T11:08:14.620Z,9.20
2022-10-29T11:11:12.095Z,9.80
2022-10-29T11:14:09.557Z,8.80
2022-10-29T11:17:07.036Z,9.50
2022-10-29T11:20:04.519Z,8.00
2022-10-29T11:23:01.979Z,9.60
2022-10-29T11:25:59.432Z,11.10
2022-10-29T11:28:56.863Z,10.80
2022-10-29T11:31:54.317Z,8.50
2022-10-29T11:34:51.758Z,10.80
2022-10-29T11:37:49.207Z,11.90
2022-10-29T11:40:46.667Z,8.80
2022-10-29T11:43:44.109Z,10.40
2022-10-29T11:46:41.552Z,12.90
2022-10-29T11:49:39.010Z,8.90
2022-10-29T11:52:36.465Z,9.30
2022-10-29T11:55:33.897Z,9.30
2022-10-29T11:58:37.979Z,10.70
2022-10-29T12:01:38.133Z,9.50
2022-10-29T12:04:35.828Z,11.20
2022-10-29T12:07:33.300Z,10.20
2022-10-29T12:10:30.737Z,9.20
2022-10-29T12:13:28.191Z,10.60
2022-10-29T12:16:25.769Z,10.40
2022-10-29T12:19:23.225Z,9.50
2022-10-29T12:22:20.757Z,9.40
2022-10-29T12:25:18.184Z,10.40
2022-10-29T12:28:19.282Z,12.20
2022-10-29T12:31:16.751Z,10.70
2022-10-29T12:34:14.193Z,12.90
2022-10-29T12:37:11.615Z,10.80
2022-10-29T12:40:09.100Z,11.00
2022-10-29T12:43:06.570Z,12.30
2022-10-29T12:46:19.727Z,12.50
2022-10-29T12:49:18.123Z,10.60
2022-10-29T12:52:15.688Z,17.10
2022-10-29T12:55:13.167Z,12.40
2022-10-29T12:58:10.606Z,13.90
2022-10-29T13:01:08.108Z,16.30
2022-10-29T13:04:05.587Z,15.90
2022-10-29T13:07:03.027Z,15.00
2022-10-29T13:10:00.482Z,16.10
2022-10-29T13:12:57.953Z,15.50
2022-10-29T13:15:55.392Z,13.20
2022-10-29T13:18:52.822Z,14.60
2022-10-29T13:21:50.297Z,12.50
2022-10-29T13:24:47.764Z,14.80
2022-10-29T13:27:45.219Z,13.20
2022-10-29T13:30:42.676Z,15.00
2022-10-29T13:33:40.147Z,11.80
2022-10-29T13:36:37.631Z,14.00
2022-10-29T13:39:35.083Z,16.90
2022-10-29T13:42:32.535Z,12.00
2022-10-29T13:45:29.988Z,12.90
2022-10-29T13:48:27.451Z,13.30
2022-10-29T13:51:24.946Z,13.40
2022-10-29T13:54:22.553Z,16.00
2022-10-29T13:57:20.224Z,14.20
2022-10-29T14:00:17.676Z,14.90
2022-10-29T14:03:15.457Z,13.20
2022-10-29T14:06:12.962Z,12.60
2022-10-29T14:09:12.052Z,13.60
2022-10-29T14:15:42.928Z,16.20
2022-10-29T14:18:41.032Z,18.80
2022-10-29T14:21:38.461Z,13.20
2022-10-29T14:24:36.286Z,14.30
2022-10-29T14:27:33.718Z,14.00
2022-10-29T14:30:31.212Z,14.00
2022-10-29T14:33:28.715Z,13.80
2022-10-29T14:36:26.195Z,12.00
2022-10-29T14:39:23.795Z,12.60
2022-10-29T14:42:23.528Z,15.50
2022-10-29T14:45:20.993Z,14.60
2022-10-29T14:48:18.783Z,14.20
2022-10-29T14:51:16.250Z,14.70
2022-10-29T14:54:13.713Z,12.90
2022-10-29T14:57:11.162Z,14.70
2022-10-29T15:00:08.617Z,17.20
2022-10-29T15:03:06.150Z,14.60
2022-10-29T15:06:03.665Z,12.90
2022-10-29T15:09:01.184Z,13.40
2022-10-29T15:11:58.639Z,14.70
2022-10-29T15:14:56.093Z,15.30
2022-10-29T15:17:53.665Z,15.10
2022-10-29T15:20:51.771Z,17.30
2022-10-29T15:23:49.222Z,17.30
2022-10-29T15:26:46.706Z,15.40
2022-10-29T15:29:44.173Z,17.00
2022-10-29T15:32:41.620Z,20.60
2022-10-29T15:35:39.087Z,17.00
2022-10-29T15:38:36.528Z,16.20
2022-10-29T15:41:34.175Z,16.90
2022-10-29T15:44:31.627Z,18.90
2022-10-29T15:47:29.067Z,15.90
2022-10-29T15:50:26.529Z,16.70
2022-10-29T15:53:23.968Z,16.70
2022-10-29T15:56:21.425Z,17.60
2022-10-29T15:59:18.871Z,17.70
2022-10-29T16:02:17.751Z,14.70
2022-10-29T16:05:15.449Z,16.40
2022-10-29T16:08:12.888Z,16.10
2022-10-29T16:11:10.369Z,20.40
2022-10-29T16:14:07.805Z,18.40
2022-10-29T16:17:05.270Z,18.90
2022-10-29T16:20:02.725Z,17.10
2022-10-29T16:23:00.183Z,17.00
2022-10-29T16:25:57.624Z,16.20
2022-10-29T16:28:55.075Z,16.70
2022-10-29T16:31:52.761Z,18.30
2022-10-29T16:34:50.245Z,20.00
2022-10-29T16:37:47.719Z,19.00
2022-10-29T16:40:45.402Z,19.20
2022-10-29T16:43:42.893Z,17.00
2022-10-29T16:46:40.872Z,18.50
2022-10-29T16:49:38.300Z,19.50
2022-10-29T16:52:35.752Z,18.40
2022-10-29T16:55:33.564Z,20.90
2022-10-29T16:58:31.055Z,18.30
2022-10-29T17:01:28.500Z,17.10
2022-10-29T17:04:26.421Z,16.00
2022-10-29T17:07:23.999Z,14.70
2022-10-29T17:10:21.471Z,15.20
2022-10-29T17:13:19.153Z,14.50
2022-10-29T17:16:18.335Z,17.30
2022-10-29T17:19:17.004Z,19.40
2022-10-29T17:22:16.388Z,17.20
2022-10-29T17:25:14.286Z,18.20
2022-10-29T17:28:12.039Z,17.00
2022-10-29T17:31:09.892Z,16.80
2022-10-29T17:34:08.655Z,18.20
2022-10-29T17:37:07.381Z,18.40
2022-10-29T17:40:07.062Z,21.20
2022-10-29T17:43:06.210Z,17.20
2022-10-29T17:46:04.985Z,24.70
2022-10-29T17:49:03.519Z,25.70
2022-10-29T17:52:03.315Z,27.90
2022-10-29T17:55:01.414Z,26.90
2022-10-29T17:58:00.979Z,30.60
2022-10-29T18:00:59.241Z,34.70
2022-10-29T18:03:58.617Z,32.70
2022-10-29T18:06:57.078Z,36.00
2022-10-29T18:09:55.556Z,34.90
2022-10-29T18:12:53.126Z,32.90
2022-10-29T18:15:51.311Z,34.60
2022-10-29T18:19:00.809Z,35.70
2022-10-29T18:22:00.408Z,37.00
2022-10-29T18:24:58.841Z,38.00
2022-10-29T18:27:56.921Z,35.80
2022-10-29T18:30:55.530Z,38.70
2022-10-29T18:33:53.045Z,39.10
2022-10-29T18:36:50.676Z,36.00
2022-10-29T18:39:48.829Z,33.60
2022-10-29T18:42:46.768Z,35.60
2022-10-29T18:45:44.471Z,35.80
2022-10-29T18:48:42.109Z,39.90
2022-10-29T18:51:40.750Z,38.70
2022-10-29T18:54:39.311Z,39.00
2022-10-29T18:57:36.918Z,45.90
2022-10-29T19:00:35.136Z,40.40
2022-10-29T19:03:32.988Z,38.30
2022-10-29T19:06:30.455Z,35.90
2022-10-29T19:09:29.585Z,39.70
2022-10-29T19:12:27.475Z,37.60
2022-10-29T19:15:25.005Z,33.70
2022-10-29T19:18:23.280Z,38.00
2022-10-29T19:21:21.170Z,28.50
2022-10-29T19:24:18.791Z,34.60
2022-10-29T19:27:16.235Z,29.80
2022-10-29T19:30:14.293Z,34.70
2022-10-29T19:33:12.781Z,35.10
2022-10-29T19:36:13.103Z,29.50
2022-10-29T19:39:10.745Z,31.40
2022-10-29T19:42:08.674Z,29.70
2022-10-29T19:45:06.815Z,30.80
2022-10-29T19:48:04.417Z,28.10
2022-10-29T19:51:02.033Z,27.50
2022-10-29T19:54:02.183Z,29.30
2022-10-29T19:57:00.665Z,24.30
2022-10-29T19:59:58.930Z,23.70
2022-10-29T20:02:57.260Z,22.20
2022-10-29T20:05:55.392Z,23.70
2022-10-29T20:08:53.021Z,22.50
2022-10-29T20:11:51.424Z,28.90
2022-10-29T20:14:48.924Z,19.00
2022-10-29T20:17:47.084Z,23.30
2022-10-29T20:20:44.579Z,20.50
2022-10-29T20:23:43.886Z,21.00
2022-10-29T20:26:42.236Z,21.00
2022-10-29T20:29:40.308Z,19.80
2022-10-29T20:32:38.993Z,20.40
2022-10-29T20:35:36.651Z,19.30
2022-10-29T20:38:34.624Z,21.80
2022-10-29T20:41:32.101Z,21.60
2022-10-29T20:44:29.939Z,21.90
2022-10-29T20:47:27.757Z,22.50
2022-10-29T20:50:25.684Z,23.70
2022-10-29T20:53:23.181Z,23.20
2022-10-29T20:56:22.560Z,22.80
2022-10-29T20:59:20.151Z,21.70
2022-10-29T21:02:17.942Z,22.90
2022-10-29T21:05:15.560Z,21.90
2022-10-29T21:08:13.196Z,24.00
2022-10-29T21:11:10.988Z,22.40
2022-10-29T21:14:08.490Z,21.50
2022-10-29T21:17:06.819Z,20.00
2022-10-29T21:20:04.286Z,20.30
2022-10-29T21:23:01.766Z,23.00
2022-10-29T21:25:59.245Z,18.90
2022-10-29T21:28:56.725Z,20.60
2022-10-29T21:31:54.160Z,18.00
2022-10-29T21:34:52.066Z,21.70
2022-10-29T21:37:49.518Z,19.00
2022-10-29T21:40:47.563Z,22.80
2022-10-29T21:43:45.079Z,22.10
2022-10-29T21:46:42.540Z,19.80
2022-10-29T21:49:39.987Z,21.00
2022-10-29T21:52:37.418Z,17.40
2022-10-29T21:55:35.489Z,21.90
2022-10-29T21:58:33.569Z,20.40
2022-10-29T22:01:31.710Z,20.60
2022-10-29T22:04:29.946Z,18.00
2022-10-29T22:07:31.285Z,16.90
2022-10-29T22:10:28.821Z,18.60
2022-10-29T22:13:26.225Z,17.90
2022-10-29T22:16:23.627Z,16.70
2022-10-29T22:19:21.025Z,16.90
2022-10-29T22:22:18.396Z,16.70
2022-10-29T22:25:15.792Z,18.50
2022-10-29T22:28:13.190Z,18.50
2022-10-29T22:31:10.587Z,18.30
2022-10-29T22:34:07.954Z,18.90
2022-10-29T22:37:05.373Z,19.50
2022-10-29T22:40:02.792Z,19.00
2022-10-29T22:43:00.525Z,18.50
2022-10-29T22:45:58.185Z,18.50
2022-10-29T22:48:55.610Z,16.60
2022-10-29T22:51:57.146Z,14.00
2022-10-29T22:54:57.918Z,16.40
2022-10-29T22:57:55.412Z,15.80
2022-10-29T23:00:52.978Z,15.00
2022-10-29T23:03:50.439Z,16.80
2022-10-29T23:06:48.541Z,16.60
2022-10-29T23:09:45.989Z,16.60
2022-10-29T23:12:43.447Z,13.90
2022-10-29T23:15:40.919Z,15.60
2022-10-29T23:18:38.366Z,13.50
2022-10-29T23:21:35.801Z,15.90
2022-10-29T23:24:33.255Z,14.50
2022-10-29T23:27:30.709Z,13.70
2022-10-29T23:30:28.150Z,15.20
2022-10-29T23:33:25.601Z,16.10
2022-10-29T23:36:23.058Z,14.50
2022-10-29T23:39:20.502Z,15.20
2022-10-29T23:42:17.943Z,15.00
2022-10-29T23:45:17.085Z,15.30
2022-10-29T23:48:14.560Z,13.50
2022-10-29T23:51:11.986Z,14.00
2022-10-29T23:54:09.448Z,13.20
2022-10-29T23:57:06.915Z,15.60
